Terminal Aerodrome Forecast
Issued by NWS

Home | Current Version | Previous Version | Text Only | Print | Product List | Glossary On
Versions: 1 2 3 4 5 6 7 8 9 10 11 12 13 14 15 16 17
000
FTUS42 KILM 271120
TAFCRE
TAF
KCRE 271120Z 2712/2812 09005KT P6SM SCT025 SCT250
     FM271700 15010KT P6SM SCT030 BKN250
     FM280200 20004KT P6SM BKN250=

USA.gov is the U.S. government's official web portal to all federal, state and local government web resources and services.